Time;durP1;ratioP1;P1;durP2;ratioP2;P2;SDS_P1;SDS_P2;PMS_P1;PMS_P2;Temp;Humidity;BMP_temperature;BMP_pressure;BME280_temperature;BME280_humidity;BME280_pressure;Samples;Min_cycle;Max_cycle;Signal;HPM_P1;HPM_P2
2021/04/03 00:02:09;;;;;;;15.90;5.20;;;;;;;5.58;74.50;101198.13;5019268;28;20072;-74
2021/04/03 00:04:36;;;;;;;14.68;6.32;;;;;;;5.62;74.63;101206.00;5019276;28;20446;-74
2021/04/03 00:07:03;;;;;;;22.02;6.82;;;;;;;5.57;74.31;101192.88;5019459;28;20053;-74
2021/04/03 00:09:29;;;;;;;18.05;5.93;;;;;;;5.52;74.63;101190.34;5018169;28;20058;-74
2021/04/03 00:11:55;;;;;;;23.58;6.22;;;;;;;5.55;74.65;101205.25;5019059;28;20481;-73
2021/04/03 00:14:21;;;;;;;24.50;7.03;;;;;;;5.46;75.29;101195.78;5018122;28;20111;-73
2021/04/03 00:16:47;;;;;;;18.95;5.78;;;;;;;5.49;75.46;101197.50;5018008;28;20057;-73
2021/04/03 00:19:14;;;;;;;23.15;6.68;;;;;;;5.42;75.59;101199.41;5018810;28;20057;-73
2021/04/03 00:21:40;;;;;;;19.73;7.63;;;;;;;5.46;75.73;101186.94;5018832;28;20046;-73
2021/04/03 00:24:07;;;;;;;14.45;5.65;;;;;;;5.42;76.19;101183.50;5018691;28;20140;-73
2021/04/03 00:26:33;;;;;;;15.57;6.43;;;;;;;5.47;75.76;101178.97;5018482;28;20049;-74
2021/04/03 00:28:59;;;;;;;23.35;5.97;;;;;;;5.50;76.00;101192.13;5018680;28;20406;-73
2021/04/03 00:31:25;;;;;;;22.27;6.88;;;;;;;5.62;75.57;101184.81;5018611;28;20099;-71
2021/04/03 00:33:52;;;;;;;19.05;6.32;;;;;;;5.58;75.43;101168.13;5018694;28;20061;-72
2021/04/03 00:36:18;;;;;;;17.17;5.65;;;;;;;5.63;75.45;101178.59;5018326;28;20054;-72
2021/04/03 00:38:45;;;;;;;20.65;6.55;;;;;;;5.70;75.49;101170.50;5000890;28;20069;-72
2021/04/03 00:41:11;;;;;;;18.10;5.72;;;;;;;5.68;75.79;101158.19;5018413;28;20054;-72
2021/04/03 00:43:37;;;;;;;17.73;6.35;;;;;;;5.71;76.07;101164.28;5017861;28;20054;-73
2021/04/03 00:46:03;;;;;;;23.30;8.32;;;;;;;5.74;76.01;101157.16;5017839;28;20061;-74
2021/04/03 00:48:30;;;;;;;22.08;6.63;;;;;;;5.78;75.86;101170.28;5016901;28;20076;-73
2021/04/03 00:50:56;;;;;;;14.27;5.97;;;;;;;5.66;77.30;101165.31;5018083;28;20050;-74
2021/04/03 00:53:24;;;;;;;21.25;7.00;;;;;;;5.59;78.68;101164.56;5017880;28;20057;-73
2021/04/03 00:55:52;;;;;;;21.88;7.55;;;;;;;5.56;78.78;101162.88;5017766;28;20062;-74
2021/04/03 00:58:20;;;;;;;26.40;7.88;;;;;;;5.30;79.80;101137.00;5017636;28;20096;-74
2021/04/03 01:00:47;;;;;;;17.90;6.95;;;;;;;5.47;79.94;101172.81;5017821;28;20108;-74
2021/04/03 01:03:13;;;;;;;15.25;7.47;;;;;;;5.41;81.02;101165.88;5017646;28;20046;-72
2021/04/03 01:05:39;;;;;;;21.52;7.03;;;;;;;5.27;81.06;101168.84;5017634;28;20080;-72
2021/04/03 01:08:05;;;;;;;24.23;7.53;;;;;;;5.20;82.02;101172.53;5016735;28;20340;-73
2021/04/03 01:10:34;;;;;;;26.33;6.18;;;;;;;5.07;83.26;101172.78;5017010;28;20046;-71
2021/04/03 01:13:19;;;;;;;20.40;7.82;;;;;;;4.84;84.13;101160.06;5017741;28;20049;-73
2021/04/03 01:15:53;;;;;;;22.13;7.10;;;;;;;4.75;85.27;101167.28;5016841;28;20077;-75
2021/04/03 01:18:33;;;;;;;21.15;7.03;;;;;;;4.77;86.68;101156.69;5017666;28;20094;-75
2021/04/03 01:21:37;;;;;;;16.65;5.88;;;;;;;4.81;85.30;101154.84;5017912;28;20054;-75
2021/04/03 01:24:31;;;;;;;21.27;5.70;;;;;;;4.78;84.93;101154.91;5017221;28;20383;-72
2021/04/03 01:27:07;;;;;;;17.02;6.10;;;;;;;4.72;85.11;101150.59;5017748;28;20054;-73
2021/04/03 01:29:47;;;;;;;28.15;6.95;;;;;;;4.67;85.25;101161.28;5017226;28;20431;-73
2021/04/03 01:32:16;;;;;;;17.42;6.70;;;;;;;4.67;85.53;101148.06;5017584;28;20100;-74
2021/04/03 01:34:45;;;;;;;20.67;7.40;;;;;;;4.65;85.18;101155.16;5017618;28;20104;-71
2021/04/03 01:37:19;;;;;;;20.45;6.70;;;;;;;4.67;86.08;101158.63;5017576;28;20049;-71
2021/04/03 01:39:48;;;;;;;16.90;6.53;;;;;;;4.73;85.83;101144.41;5017503;28;20050;-71
2021/04/03 01:42:18;;;;;;;22.35;6.55;;;;;;;4.73;85.72;101153.22;5017649;28;20050;-72
2021/04/03 01:44:51;;;;;;;16.10;6.43;;;;;;;4.74;85.93;101154.09;5016976;28;20066;-73
2021/04/03 01:47:23;;;;;;;27.08;8.05;;;;;;;4.80;85.37;101153.09;5015711;28;20061;-71
2021/04/03 01:49:52;;;;;;;27.35;7.65;;;;;;;4.81;85.66;101150.44;5016266;28;20053;-73
2021/04/03 01:52:22;;;;;;;21.15;8.32;;;;;;;4.82;86.18;101151.28;5016765;28;20313;-72
2021/04/03 01:54:51;;;;;;;28.50;6.70;;;;;;;4.85;85.43;101149.44;5016229;28;20136;-75
2021/04/03 01:57:18;;;;;;;22.20;7.50;;;;;;;4.80;85.30;101153.94;5017053;28;20371;-72
2021/04/03 01:59:46;;;;;;;19.38;6.70;;;;;;;4.84;85.00;101141.53;5015896;28;20058;-75
2021/04/03 02:02:14;;;;;;;23.75;7.05;;;;;;;4.76;84.81;101145.22;5017244;28;20112;-72
2021/04/03 02:04:43;;;;;;;34.63;7.18;;;;;;;4.65;85.10;101136.66;5015869;28;20053;-73
2021/04/03 02:07:18;;;;;;;25.63;7.18;;;;;;;4.66;85.83;101154.25;5016127;28;20065;-72
2021/04/03 02:09:50;;;;;;;23.40;6.65;;;;;;;4.66;84.87;101153.38;5016001;28;20050;-73
2021/04/03 02:12:21;;;;;;;34.05;7.70;;;;;;;4.71;84.11;101144.47;5016742;28;20061;-73
2021/04/03 02:14:50;;;;;;;21.02;7.25;;;;;;;4.64;85.14;101147.25;5016971;28;20113;-71
2021/04/03 02:17:18;;;;;;;16.67;6.18;;;;;;;4.68;84.58;101160.38;5016715;28;20062;-73
2021/04/03 02:19:44;;;;;;;27.30;6.85;;;;;;;4.68;84.79;101143.66;5016771;28;20049;-73
2021/04/03 02:22:13;;;;;;;17.75;5.55;;;;;;;4.68;83.46;101165.66;5016526;28;20053;-74
2021/04/03 02:24:41;;;;;;;30.30;7.22;;;;;;;4.60;84.15;101157.91;5016786;28;20065;-73
2021/04/03 02:27:08;;;;;;;25.65;5.95;;;;;;;4.66;83.90;101164.84;5016072;28;20485;-74
2021/04/03 02:29:34;;;;;;;27.77;6.63;;;;;;;4.62;83.96;101156.09;5016244;28;20053;-72
2021/04/03 02:32:00;;;;;;;22.42;5.68;;;;;;;4.64;83.99;101156.06;5015526;28;20049;-72
2021/04/03 02:34:27;;;;;;;23.00;6.45;;;;;;;4.60;83.10;101167.59;5016108;28;20054;-71
2021/04/03 02:37:13;;;;;;;20.42;5.60;;;;;;;4.56;82.67;101164.16;5029962;28;20135;-73
2021/04/03 02:39:40;;;;;;;32.42;6.78;;;;;;;4.60;82.74;101160.56;5016913;28;20056;-72
2021/04/03 02:42:16;;;;;;;16.45;5.03;;;;;;;4.62;82.19;101164.03;5016116;28;20053;-74
2021/04/03 02:44:49;;;;;;;18.83;5.68;;;;;;;4.55;81.46;101153.59;5015833;28;20058;-74
2021/04/03 02:47:21;;;;;;;24.98;5.70;;;;;;;4.52;81.53;101169.53;5014607;28;20057;-74
2021/04/03 02:50:04;;;;;;;18.00;4.93;;;;;;;4.53;81.52;101165.97;5015935;28;20107;-74
2021/04/03 02:52:35;;;;;;;24.90;5.60;;;;;;;4.56;82.33;101176.47;5015808;28;20050;-73
2021/04/03 02:55:03;;;;;;;28.83;5.57;;;;;;;4.62;81.46;101186.94;5015044;28;20046;-73
2021/04/03 02:57:31;;;;;;;13.98;4.45;;;;;;;4.62;81.00;101179.00;5015944;28;20049;-73
2021/04/03 02:59:57;;;;;;;29.35;6.63;;;;;;;4.64;80.30;101178.97;5015764;28;20112;-74
2021/04/03 03:02:26;;;;;;;22.33;5.00;;;;;;;4.57;80.85;101167.66;5016225;28;20049;-74
2021/04/03 03:04:54;;;;;;;25.40;5.25;;;;;;;4.58;80.86;101164.97;5017055;28;20111;-73
2021/04/03 03:07:24;;;;;;;23.80;5.30;;;;;;;4.66;79.45;101174.53;5017132;28;20395;-73
2021/04/03 03:09:51;;;;;;;28.23;4.85;;;;;;;4.68;78.39;101180.69;5018072;28;20061;-72
2021/04/03 03:12:21;;;;;;;23.13;5.65;;;;;;;4.71;78.57;101178.84;5018528;28;20049;-74
2021/04/03 03:14:51;;;;;;;18.70;4.88;;;;;;;4.75;78.68;101182.28;5017329;28;20464;-73
2021/04/03 03:17:18;;;;;;;21.48;5.47;;;;;;;4.71;77.90;101170.91;5016366;28;20054;-74
2021/04/03 03:19:45;;;;;;;19.35;5.65;;;;;;;4.74;78.05;101175.28;5015895;28;20534;-74
2021/04/03 03:22:12;;;;;;;25.73;5.07;;;;;;;4.60;77.70;101159.66;5015943;28;20054;-73
2021/04/03 03:24:38;;;;;;;37.60;6.55;;;;;;;4.58;77.21;101158.84;5014597;28;20057;-74
2021/04/03 03:27:07;;;;;;;26.55;4.47;;;;;;;4.66;76.94;101175.41;5015291;28;20146;-73
2021/04/03 03:29:34;;;;;;;20.42;4.30;;;;;;;4.63;77.78;101164.88;5015405;28;20060;-72
2021/04/03 03:32:02;;;;;;;20.70;4.10;;;;;;;4.59;77.06;101166.72;5015506;28;20060;-74
2021/04/03 03:34:28;;;;;;;29.48;4.13;;;;;;;4.55;77.44;101172.97;5014786;28;20053;-73
2021/04/03 03:36:55;;;;;;;21.10;4.40;;;;;;;4.62;77.74;101176.34;5015466;28;20056;-73
2021/04/03 03:39:21;;;;;;;22.02;4.18;;;;;;;4.69;77.28;101177.97;5015228;28;20456;-72
2021/04/03 03:41:48;;;;;;;17.33;3.85;;;;;;;4.64;76.35;101174.59;5015678;28;20049;-73
2021/04/03 03:44:14;;;;;;;12.43;3.78;;;;;;;4.63;76.57;101178.09;5014070;28;20062;-72
2021/04/03 03:46:40;;;;;;;22.95;4.78;;;;;;;4.68;76.57;101176.25;5014205;28;20137;-73
2021/04/03 03:49:08;;;;;;;25.52;5.15;;;;;;;4.61;76.13;101161.41;5015062;28;20057;-72
2021/04/03 03:51:34;;;;;;;26.65;4.13;;;;;;;4.60;75.95;101172.88;5014307;28;20057;-73
2021/04/03 03:54:01;;;;;;;22.00;4.72;;;;;;;4.78;74.79;101181.38;5015113;28;20054;-74
2021/04/03 03:56:27;;;;;;;21.20;4.22;;;;;;;4.72;74.93;101183.22;4997801;28;20054;-73
2021/04/03 03:58:53;;;;;;;19.30;3.35;;;;;;;4.63;74.75;101178.09;5013922;28;20049;-73
2021/04/03 04:01:19;;;;;;;20.30;3.70;;;;;;;4.65;75.20;101178.06;5014872;28;20050;-73
2021/04/03 04:03:45;;;;;;;22.42;3.47;;;;;;;4.57;74.61;101183.53;5014801;28;20371;-72
2021/04/03 04:06:12;;;;;;;20.23;4.68;;;;;;;4.60;74.32;101172.88;5015207;28;20050;-72
2021/04/03 04:08:44;;;;;;;24.02;3.92;;;;;;;4.67;74.39;101178.91;5015335;28;20351;-74
2021/04/03 04:11:12;;;;;;;17.67;3.65;;;;;;;4.70;73.90;101182.41;5014157;28;20068;-74
2021/04/03 04:13:38;;;;;;;24.20;5.57;;;;;;;4.65;73.91;101172.78;5014987;28;20116;-74
2021/04/03 04:16:05;;;;;;;20.52;3.75;;;;;;;4.70;74.10;101177.09;5014960;28;20050;-73
2021/04/03 04:18:31;;;;;;;22.65;4.55;;;;;;;4.65;74.18;101175.44;5030304;28;20104;-74
2021/04/03 04:20:58;;;;;;;16.77;3.40;;;;;;;4.70;74.60;101173.56;5015077;28;20050;-74
2021/04/03 04:23:25;;;;;;;23.75;4.30;;;;;;;4.67;73.34;101169.22;5014757;28;21056;-74
2021/04/03 04:25:51;;;;;;;18.30;3.08;;;;;;;4.73;72.43;101184.97;5014745;28;20061;-72
2021/04/03 04:28:17;;;;;;;20.95;3.05;;;;;;;4.68;73.06;101178.03;5014791;28;20050;-74
2021/04/03 04:30:44;;;;;;;18.40;3.50;;;;;;;4.73;72.75;101190.25;5013537;28;20057;-74
2021/04/03 04:33:10;;;;;;;15.48;3.58;;;;;;;4.71;72.36;101180.59;5014491;28;20367;-73
2021/04/03 04:35:37;;;;;;;19.05;3.50;;;;;;;4.72;70.71;101191.16;5014662;28;20050;-72
2021/04/03 04:38:03;;;;;;;13.15;3.20;;;;;;;4.72;71.30;101198.22;5014057;28;20058;-73
2021/04/03 04:40:30;;;;;;;19.35;2.72;;;;;;;4.62;71.56;101198.41;5014765;28;20054;-72
2021/04/03 04:42:57;;;;;;;20.30;3.40;;;;;;;4.64;71.84;101195.72;5014889;28;20050;-74
2021/04/03 04:45:24;;;;;;;24.13;3.53;;;;;;;4.71;71.24;101207.03;5014264;28;20128;-72
2021/04/03 04:47:50;;;;;;;26.10;3.33;;;;;;;4.67;70.78;101211.53;5018060;28;20107;-73
2021/04/03 04:50:17;;;;;;;22.27;3.50;;;;;;;4.73;71.76;101214.06;5018191;28;20108;-72
2021/04/03 04:52:44;;;;;;;27.20;3.35;;;;;;;4.70;71.28;101208.84;5017412;28;20053;-73
2021/04/03 04:55:11;;;;;;;25.38;3.75;;;;;;;4.80;70.83;101216.59;5018175;28;20053;-73
2021/04/03 04:57:37;;;;;;;22.50;3.58;;;;;;;4.77;70.33;101222.81;5018907;28;20080;-71
2021/04/03 05:00:04;;;;;;;16.45;3.13;;;;;;;4.67;71.04;101214.16;5018319;28;20049;-73
2021/04/03 05:02:32;;;;;;;18.00;3.90;;;;;;;4.76;71.04;101227.19;5018280;28;20057;-72
2021/04/03 05:04:58;;;;;;;15.25;3.70;;;;;;;4.75;71.06;101230.75;5016979;28;20056;-72
2021/04/03 05:07:24;;;;;;;15.80;3.33;;;;;;;4.78;71.29;101232.47;5018191;28;20054;-71
2021/04/03 05:09:51;;;;;;;19.88;2.92;;;;;;;4.82;70.45;101242.09;5017203;28;20080;-72
2021/04/03 05:12:17;;;;;;;18.38;3.92;;;;;;;4.77;70.09;101243.97;5018060;28;20053;-72
2021/04/03 05:14:43;;;;;;;26.35;3.58;;;;;;;4.79;70.27;101246.59;5018044;28;20076;-73
2021/04/03 05:17:10;;;;;;;25.60;3.60;;;;;;;4.83;70.52;101249.13;5018073;28;20396;-71
2021/04/03 05:19:36;;;;;;;16.73;3.17;;;;;;;4.80;69.88;101248.31;5017575;28;20119;-71
2021/04/03 05:22:02;;;;;;;26.50;4.32;;;;;;;4.76;70.19;101253.66;5017901;28;20050;-75
2021/04/03 05:24:29;;;;;;;23.23;4.07;;;;;;;4.78;70.74;101251.00;5017598;28;20470;-72
2021/04/03 05:26:55;;;;;;;21.20;3.83;;;;;;;4.69;70.67;101245.88;5017966;28;20053;-71
2021/04/03 05:29:21;;;;;;;27.42;4.50;;;;;;;4.72;70.99;101246.69;5018259;28;20061;-75
2021/04/03 05:31:49;;;;;;;22.35;3.35;;;;;;;4.66;71.22;101241.53;5017371;28;20065;-74
2021/04/03 05:34:15;;;;;;;20.42;3.65;;;;;;;4.72;71.81;101238.75;5016332;28;20050;-73
2021/04/03 05:36:41;;;;;;;26.25;3.72;;;;;;;4.61;71.42;101211.66;5018307;28;20060;-72
2021/04/03 05:39:07;;;;;;;26.90;3.50;;;;;;;4.85;71.37;101259.69;5019302;28;20363;-73
2021/04/03 05:41:33;;;;;;;26.85;3.75;;;;;;;4.89;71.83;101262.25;5018624;28;20077;-73
2021/04/03 05:44:01;;;;;;;26.25;3.50;;;;;;;4.85;71.57;101259.69;5018389;28;20053;-71
2021/04/03 05:46:28;;;;;;;22.75;3.83;;;;;;;4.89;72.06;101250.78;5017711;28;20081;-72
2021/04/03 05:48:55;;;;;;;25.55;4.82;;;;;;;4.91;71.38;101256.94;5018217;28;20088;-73
2021/04/03 05:51:21;;;;;;;17.70;3.97;;;;;;;4.89;71.73;101256.06;5016868;28;20104;-72
2021/04/03 05:53:48;;;;;;;28.02;5.30;;;;;;;4.79;71.97;101236.00;5018179;28;20129;-71
2021/04/03 05:56:14;;;;;;;16.27;3.80;;;;;;;4.95;71.93;101263.88;5017873;28;20113;-72
2021/04/03 05:58:41;;;;;;;20.55;4.93;;;;;;;4.95;72.21;101273.63;5015875;28;20054;-73
2021/04/03 06:01:08;;;;;;;18.17;4.35;;;;;;;4.82;72.59;101272.97;5017040;28;20100;-71
2021/04/03 06:03:34;;;;;;;26.05;4.30;;;;;;;4.74;72.61;101265.19;4999688;28;20119;-71
2021/04/03 06:06:01;;;;;;;21.00;3.75;;;;;;;4.88;73.04;101272.84;5016901;28;20054;-75
2021/04/03 06:08:30;;;;;;;22.02;4.07;;;;;;;4.95;72.58;101279.75;5016506;28;20062;-73
2021/04/03 06:11:19;;;;;;;23.95;3.75;;;;;;;4.96;73.11;101285.94;5016786;28;20058;-73
2021/04/03 06:14:00;;;;;;;22.52;4.25;;;;;;;5.01;72.65;101284.94;5017561;28;20057;-76
2021/04/03 06:16:35;;;;;;;24.80;3.55;;;;;;;5.09;71.86;101283.91;5017658;28;20321;-73
2021/04/03 06:19:08;;;;;;;27.30;3.38;;;;;;;5.05;71.12;101284.91;4999574;28;20056;-71
2021/04/03 06:21:35;;;;;;;25.90;6.57;;;;;;;5.05;72.04;101287.53;5016940;28;20061;-72
2021/04/03 06:24:02;;;;;;;27.70;6.45;;;;;;;5.05;72.41;101292.84;5016293;28;20424;-72
2021/04/03 06:26:28;;;;;;;21.90;3.85;;;;;;;4.96;72.05;101255.03;5016095;28;20050;-71
2021/04/03 06:29:22;;;;;;;18.20;3.67;;;;;;;5.14;71.86;101300.56;5015769;28;20057;-73
2021/04/03 06:31:52;;;;;;;21.42;4.03;;;;;;;5.18;71.27;101296.97;5016192;28;20053;-72
2021/04/03 06:34:28;;;;;;;21.60;3.75;;;;;;;5.07;70.58;101283.06;5015963;28;20046;-76
2021/04/03 06:36:56;;;;;;;24.63;3.70;;;;;;;5.25;70.88;101297.72;5016403;28;20064;-73
2021/04/03 06:39:23;;;;;;;28.25;5.00;;;;;;;5.32;70.42;101309.91;5015036;28;20431;-70
2021/04/03 06:41:50;;;;;;;19.35;4.35;;;;;;;5.25;70.80;101308.28;5014968;28;20060;-72
2021/04/03 06:44:17;;;;;;;28.52;3.47;;;;;;;5.27;70.11;101317.06;5015146;28;20105;-72
2021/04/03 06:46:45;;;;;;;26.77;3.60;;;;;;;5.21;70.58;101304.84;5014414;28;20073;-73
2021/04/03 06:49:13;;;;;;;23.30;3.70;;;;;;;5.21;70.66;101315.44;5013962;28;20050;-73
2021/04/03 06:51:41;;;;;;;25.63;4.50;;;;;;;5.23;70.72;101304.81;5014426;28;20046;-73
2021/04/03 06:54:08;;;;;;;28.48;4.22;;;;;;;5.33;70.35;101313.44;5016022;28;20081;-71
2021/04/03 06:56:36;;;;;;;25.88;4.35;;;;;;;5.32;70.31;101324.94;5015226;28;20050;-71
2021/04/03 06:59:06;;;;;;;21.80;4.10;;;;;;;5.37;70.27;101323.03;5015286;28;20061;-71
2021/04/03 07:01:38;;;;;;;21.30;4.53;;;;;;;5.35;70.97;101330.16;4995386;28;20419;-73
2021/04/03 07:04:21;;;;;;;28.27;4.85;;;;;;;5.35;71.23;101328.41;4996646;28;20081;-73
2021/04/03 07:06:50;;;;;;;26.30;4.15;;;;;;;5.49;71.12;101333.38;4996377;28;20054;-72
2021/04/03 07:09:18;;;;;;;25.70;3.80;;;;;;;5.56;70.87;101328.84;4995266;28;20057;-71
2021/04/03 07:11:47;;;;;;;25.58;4.28;;;;;;;5.63;70.98;101332.22;4994901;28;20276;-72
2021/04/03 07:14:18;;;;;;;27.02;4.72;;;;;;;5.64;71.02;101331.31;4996027;28;20054;-73
2021/04/03 07:16:48;;;;;;;21.70;4.00;;;;;;;5.52;71.41;101343.94;4996084;28;20073;-73
2021/04/03 07:19:17;;;;;;;30.75;4.63;;;;;;;5.55;71.15;101346.50;4995936;28;20061;-73
2021/04/03 07:21:44;;;;;;;36.15;5.03;;;;;;;5.49;71.52;101346.63;4995851;28;20085;-71
2021/04/03 07:24:12;;;;;;;30.23;5.03;;;;;;;5.43;71.76;101344.09;4996093;28;20096;-74
2021/04/03 07:26:43;;;;;;;29.45;4.75;;;;;;;5.52;72.08;101343.94;4995732;28;20054;-73
2021/04/03 07:29:47;;;;;;;30.65;4.82;;;;;;;5.72;71.27;101339.97;4995059;28;20058;-73
2021/04/03 07:32:30;;;;;;;24.83;4.95;;;;;;;5.80;71.50;101324.78;4995959;28;20069;-72
2021/04/03 07:34:57;;;;;;;18.77;2.97;;;;;;;5.98;70.83;101347.34;4996210;28;20372;-74
2021/04/03 07:37:34;;;;;;;26.88;4.60;;;;;;;5.88;70.44;101348.44;4995972;28;20117;-72
2021/04/03 07:40:03;;;;;;;35.15;5.57;;;;;;;5.93;70.72;101351.00;4995978;28;20104;-74
2021/04/03 07:42:38;;;;;;;35.53;5.30;;;;;;;5.94;70.32;101350.13;5010609;28;20435;-74
2021/04/03 07:45:26;;;;;;;33.03;5.03;;;;;;;6.00;69.99;101354.38;4995456;28;20046;-73
2021/04/03 07:47:52;;;;;;;23.52;5.38;;;;;;;6.08;70.45;101352.47;4995451;28;20062;-73
2021/04/03 07:50:42;;;;;;;31.65;5.55;;;;;;;6.13;70.02;101362.97;4995763;28;20049;-72
2021/04/03 07:53:10;;;;;;;28.45;4.60;;;;;;;6.04;70.13;101353.47;4987691;28;20379;-71
2021/04/03 07:55:40;;;;;;;27.25;5.65;;;;;;;5.93;69.37;101338.63;4994447;28;20392;-73
2021/04/03 07:58:19;;;;;;;36.80;5.25;;;;;;;6.03;69.53;101359.63;4995472;28;20077;-72
2021/04/03 08:00:46;;;;;;;34.30;6.43;;;;;;;6.24;69.64;101359.16;5008853;28;20394;-73
2021/04/03 08:03:18;;;;;;;39.85;6.80;;;;;;;6.31;69.81;101362.53;5014059;28;20316;-74
2021/04/03 08:05:46;;;;;;;;;;;;;;;6.29;69.63;101363.47;5014393;28;20053;-72
2021/04/03 08:08:12;;;;;;;36.88;5.78;;;;;;;6.14;70.08;101368.22;5014934;28;20227;-74
2021/04/03 08:10:38;;;;;;;34.20;5.07;;;;;;;6.20;70.29;101367.22;5013835;28;20061;-73
2021/04/03 08:13:05;;;;;;;37.45;5.47;;;;;;;6.23;69.84;101367.16;5014946;28;20084;-72
2021/04/03 08:15:32;;;;;;;22.35;4.70;;;;;;;6.36;69.73;101375.69;5014134;28;20128;-74
2021/04/03 08:17:58;;;;;;;33.38;5.90;;;;;;;6.50;68.64;101372.72;5014794;28;20057;-74
2021/04/03 08:20:25;;;;;;;28.15;4.85;;;;;;;6.68;68.26;101384.63;5016571;28;20337;-72
2021/04/03 08:23:05;;;;;;;35.60;5.68;;;;;;;6.62;68.20;101380.38;5018844;28;20129;-73
2021/04/03 08:25:33;;;;;;;30.52;6.47;;;;;;;6.60;68.02;101386.63;5019076;28;20121;-73
2021/04/03 08:28:18;;;;;;;31.17;5.85;;;;;;;6.54;68.31;101387.63;5018571;28;20053;-73
2021/04/03 08:30:45;;;;;;;39.65;7.43;;;;;;;6.48;68.32;101391.31;5018895;28;20053;-74
2021/04/03 08:33:13;;;;;;;27.35;5.90;;;;;;;6.58;68.87;101391.09;5018650;28;20057;-74
2021/04/03 08:35:43;;;;;;;28.55;5.53;;;;;;;6.63;67.82;101395.38;5018675;28;20054;-73
2021/04/03 08:38:21;;;;;;;31.35;5.22;;;;;;;6.62;67.58;101396.28;5018270;28;20061;-71
2021/04/03 08:40:49;;;;;;;29.08;6.00;;;;;;;6.64;66.17;101401.53;5018407;28;20112;-73
2021/04/03 08:43:21;;;;;;;28.17;6.38;;;;;;;6.74;66.37;101391.56;5018456;28;20050;-72
2021/04/03 08:45:48;;;;;;;31.38;4.60;;;;;;;6.93;65.64;101394.63;5018150;28;20062;-73
2021/04/03 08:48:14;;;;;;;24.48;4.50;;;;;;;7.13;64.62;101391.44;5018151;28;20064;-72
2021/04/03 08:50:43;;;;;;;36.60;7.03;;;;;;;7.20;64.78;101398.34;5018435;28;20086;-72
2021/04/03 08:53:10;;;;;;;30.92;5.68;;;;;;;7.15;64.55;101381.66;5018111;28;20049;-73
2021/04/03 08:55:36;;;;;;;28.00;5.82;;;;;;;7.38;64.82;101403.19;5018056;28;20080;-72
2021/04/03 08:58:05;;;;;;;35.10;4.97;;;;;;;7.29;65.13;101401.63;5017971;28;20380;-72
2021/04/03 09:00:32;;;;;;;28.48;5.45;;;;;;;7.19;65.30;101401.91;5018262;28;20387;-72
2021/04/03 09:02:59;;;;;;;28.58;4.80;;;;;;;7.24;65.24;101400.91;5017045;28;20054;-73
2021/04/03 09:05:26;;;;;;;27.85;5.18;;;;;;;7.10;62.46;101407.47;5017870;28;20052;-72
2021/04/03 09:07:53;;;;;;;25.88;4.80;;;;;;;7.19;62.62;101399.25;5017845;28;20440;-73
2021/04/03 09:10:23;;;;;;;25.00;4.72;;;;;;;7.33;62.55;101404.19;5017793;28;20093;-73
2021/04/03 09:12:50;;;;;;;28.52;5.72;;;;;;;7.45;62.18;101404.75;5017630;28;20046;-72
2021/04/03 09:15:25;;;;;;;28.73;4.28;;;;;;;7.73;61.49;101410.16;5017809;28;20112;-74
2021/04/03 09:17:54;;;;;;;19.98;3.80;;;;;;;7.71;62.07;101404.03;5016936;28;20054;-74
2021/04/03 09:20:27;;;;;;;31.35;4.80;;;;;;;7.59;61.70;101404.38;5017513;28;20494;-72
2021/04/03 09:22:56;;;;;;;34.17;5.30;;;;;;;7.67;61.78;101414.78;5017495;28;20057;-74
2021/04/03 09:25:28;;;;;;;26.92;5.15;;;;;;;7.79;61.15;101410.91;5017610;28;20424;-72
2021/04/03 09:28:05;;;;;;;22.25;4.50;;;;;;;7.82;60.66;101410.81;5018173;28;20056;-73
2021/04/03 09:30:33;;;;;;;24.88;5.18;;;;;;;7.58;60.61;101413.28;5018324;28;20341;-73
2021/04/03 09:33:21;;;;;;;23.92;4.50;;;;;;;7.48;60.21;101423.28;5017686;28;20045;-73
2021/04/03 09:35:47;;;;;;;26.27;4.70;;;;;;;7.55;60.64;101414.22;5017934;28;20410;-74
2021/04/03 09:38:14;;;;;;;24.42;3.70;;;;;;;7.66;58.78;101394.44;5018038;28;20436;-75
2021/04/03 09:40:45;;;;;;;24.42;4.25;;;;;;;7.97;57.96;101412.16;5017761;28;20053;-74
2021/04/03 09:43:13;;;;;;;21.08;4.82;;;;;;;8.31;56.99;101391.59;5017231;28;20045;-73
2021/04/03 09:45:57;;;;;;;24.15;4.00;;;;;;;8.86;56.90;101398.72;5017704;28;20149;-73
2021/04/03 09:48:23;;;;;;;23.42;3.80;;;;;;;9.27;56.29;101404.44;5017870;28;20050;-74
2021/04/03 09:50:50;;;;;;;23.98;4.13;;;;;;;9.56;55.14;101398.97;5017589;28;20049;-74
2021/04/03 09:53:16;;;;;;;24.80;4.15;;;;;;;9.57;55.17;101374.03;5017039;28;20104;-74
2021/04/03 09:55:42;;;;;;;28.55;4.80;;;;;;;9.37;55.69;101403.16;5017069;28;20698;-74
2021/04/03 09:58:08;;;;;;;29.98;5.80;;;;;;;9.29;56.15;101407.03;5016796;28;20061;-73
2021/04/03 10:00:34;;;;;;;29.58;6.00;;;;;;;9.13;57.46;101402.25;5015898;28;20053;-74
2021/04/03 10:03:01;;;;;;;26.88;6.03;;;;;;;9.04;56.55;101399.91;5015666;28;20129;-73
2021/04/03 10:05:27;;;;;;;28.67;4.38;;;;;;;8.84;57.57;101398.81;5016222;28;20111;-75
2021/04/03 10:07:53;;;;;;;32.28;5.43;;;;;;;8.44;57.59;101403.59;5015674;28;20046;-73
2021/04/03 10:10:20;;;;;;;25.45;5.05;;;;;;;8.44;57.65;101403.59;5016665;28;20054;-75
2021/04/03 10:12:46;;;;;;;29.90;4.80;;;;;;;8.19;58.30;101393.75;5015965;28;20050;-73
2021/04/03 10:15:12;;;;;;;26.90;5.70;;;;;;;8.31;58.61;101397.81;5015558;28;20432;-76
2021/04/03 10:17:39;;;;;;;20.00;4.22;;;;;;;8.49;57.97;101391.03;5015098;28;20085;-74
2021/04/03 10:20:05;;;;;;;23.42;7.05;;;;;;;8.71;58.33;101397.47;5016549;28;20415;-73
2021/04/03 10:22:32;;;;;;;27.92;6.57;;;;;;;8.74;57.92;101400.91;5015112;28;20056;-75
2021/04/03 10:24:58;;;;;;;23.27;4.57;;;;;;;8.53;58.06;101403.34;5014313;28;20053;-74
2021/04/03 10:27:24;;;;;;;27.38;5.93;;;;;;;8.35;58.55;101407.44;5015492;28;20061;-73
2021/04/03 10:29:50;;;;;;;28.92;4.97;;;;;;;8.41;58.71;101401.03;5016710;28;20124;-73
2021/04/03 10:32:17;;;;;;;23.95;4.72;;;;;;;8.43;57.42;101401.84;5016027;28;20046;-72
2021/04/03 10:34:43;;;;;;;20.27;5.00;;;;;;;8.31;57.25;101395.16;5016388;28;20344;-73
2021/04/03 10:37:10;;;;;;;23.20;4.47;;;;;;;8.66;57.90;101408.28;5017485;28;20057;-72
2021/04/03 10:39:36;;;;;;;17.65;4.55;;;;;;;8.98;55.52;101400.97;5016608;28;20057;-74
2021/04/03 10:42:03;;;;;;;16.13;3.80;;;;;;;9.24;55.95;101393.88;5017353;28;20053;-74
2021/04/03 10:44:29;;;;;;;19.73;4.05;;;;;;;9.61;54.09;101391.66;5012289;28;20073;-75
2021/04/03 10:46:56;;;;;;;16.63;4.30;;;;;;;10.08;53.65;101384.59;4997779;28;20475;-77
2021/04/03 10:49:22;;;;;;;18.40;4.55;;;;;;;10.29;52.68;101393.50;4996799;28;20050;-73
2021/04/03 10:51:48;;;;;;;18.52;5.82;;;;;;;10.27;51.19;101390.03;4996581;28;20050;-74
2021/04/03 10:54:18;;;;;;;17.13;4.55;;;;;;;10.41;50.44;101390.34;4996499;28;20153;-79
2021/04/03 10:56:44;;;;;;;18.40;4.45;;;;;;;10.75;50.93;101393.47;5006904;28;20061;-76
2021/04/03 10:59:10;;;;;;;19.08;4.40;;;;;;;10.88;49.99;101400.97;5016212;28;20058;-74
2021/04/03 11:01:37;;;;;;;27.65;4.25;;;;;;;10.82;50.27;101391.41;5016265;28;20050;-74
2021/04/03 11:04:04;;;;;;;23.40;4.88;;;;;;;11.27;49.07;101385.00;5016920;28;20057;-73
2021/04/03 11:06:30;;;;;;;21.88;4.30;;;;;;;10.72;49.89;101389.13;5016156;28;20054;-72
2021/04/03 11:08:56;;;;;;;22.77;4.50;;;;;;;10.79;50.71;101383.53;5016602;28;20061;-72
2021/04/03 11:11:22;;;;;;;14.98;4.28;;;;;;;10.47;49.56;101378.63;5014815;28;20065;-73
2021/04/03 11:13:48;;;;;;;19.77;4.55;;;;;;;10.44;50.68;101387.59;5015565;28;20057;-73
2021/04/03 11:16:14;;;;;;;21.90;4.90;;;;;;;10.41;50.44;101393.03;5015155;28;20120;-73
2021/04/03 11:18:40;;;;;;;30.88;5.57;;;;;;;10.24;50.92;101388.38;5015478;28;20053;-73
2021/04/03 11:21:06;;;;;;;21.08;4.03;;;;;;;10.29;51.06;101382.84;5015102;28;20057;-72
2021/04/03 11:23:33;;;;;;;20.77;3.80;;;;;;;10.53;50.62;101382.81;5014773;28;20054;-73
2021/04/03 11:25:59;;;;;;;21.48;4.57;;;;;;;10.90;50.93;101383.06;5015317;28;20383;-73
2021/04/03 11:28:25;;;;;;;15.27;3.53;;;;;;;11.07;49.49;101387.69;5013987;28;20045;-73
2021/04/03 11:30:52;;;;;;;25.50;4.32;;;;;;;11.31;49.71;101387.53;5015700;28;20056;-73
2021/04/03 11:33:19;;;;;;;21.10;4.05;;;;;;;11.11;49.01;101381.28;5015435;28;20057;-74